Terminal Aerodrome Forecast
Issued by NWS

Home | Current Version | Previous Version | Text Only | Print | Product List | Glossary On
Versions: 1 2 3 4 5 6 7 8 9 10 11 12 13 14 15 16 17 18 19 20 21 22 23 24 25 26
000
FTUS45 KBOU 270916 AAA
TAFBJC
TAF AMD
KBJC 270916Z 2709/2806 31006KT P6SM FEW220
     FM271900 23014G22KT P6SM SCT220
     FM280100 29018G26KT P6SM SCT140 BKN220=

USA.gov is the U.S. government's official web portal to all federal, state and local government web resources and services.